createdAt,value
2019-02-02T00:02:19.719Z,59.13
2019-02-02T00:04:47.917Z,52.65
2019-02-02T00:07:16.124Z,49.60
2019-02-02T00:09:44.315Z,49.65
2019-02-02T00:12:12.527Z,49.40
2019-02-02T00:14:40.724Z,42.05
2019-02-02T00:17:08.935Z,42.38
2019-02-02T00:19:37.140Z,37.40
2019-02-02T00:22:05.503Z,41.48
2019-02-02T00:24:33.705Z,39.83
2019-02-02T00:27:01.915Z,45.58
2019-02-02T00:29:30.128Z,37.33
2019-02-02T00:31:58.339Z,40.48
2019-02-02T00:34:27.306Z,39.05
2019-02-02T00:36:55.533Z,38.33
2019-02-02T00:39:23.732Z,40.55
2019-02-02T00:41:51.933Z,42.15
2019-02-02T00:44:20.140Z,46.30
2019-02-02T00:46:48.668Z,33.90
2019-02-02T00:49:16.868Z,39.67
2019-02-02T00:51:45.068Z,45.92
2019-02-02T00:54:13.276Z,44.80
2019-02-02T00:56:41.473Z,41.53
2019-02-02T00:59:09.683Z,36.58
2019-02-02T01:01:37.871Z,35.13
2019-02-02T01:04:06.093Z,40.67
2019-02-02T01:06:34.285Z,42.15
2019-02-02T01:09:04.132Z,46.20
2019-02-02T01:11:32.341Z,49.35
2019-02-02T01:14:00.548Z,62.03
2019-02-02T01:16:28.744Z,56.88
2019-02-02T01:18:57.528Z,61.63
2019-02-02T01:21:25.730Z,65.75
2019-02-02T01:23:53.939Z,61.95
2019-02-02T01:26:22.131Z,59.38
2019-02-02T01:28:50.340Z,52.95
2019-02-02T01:31:18.540Z,51.33
2019-02-02T01:33:46.750Z,48.92
2019-02-02T01:36:14.943Z,53.20
2019-02-02T01:38:43.284Z,47.15
2019-02-02T01:41:11.643Z,43.98
2019-02-02T01:43:39.852Z,49.38
2019-02-02T01:46:08.055Z,44.67
2019-02-02T01:48:36.264Z,46.45
2019-02-02T01:51:04.464Z,40.17
2019-02-02T01:53:32.680Z,37.88
2019-02-02T01:56:00.880Z,41.25
2019-02-02T01:58:29.096Z,36.13
2019-02-02T02:00:57.296Z,41.95
2019-02-02T02:03:25.494Z,41.60
2019-02-02T02:05:53.702Z,41.08
2019-02-02T02:08:21.898Z,35.13
2019-02-02T02:10:50.112Z,39.85
2019-02-02T02:13:18.309Z,34.65
2019-02-02T02:15:46.519Z,34.18
2019-02-02T02:18:14.719Z,40.80
2019-02-02T02:20:42.933Z,37.10
2019-02-02T02:23:11.131Z,39.00
2019-02-02T02:25:39.347Z,35.83
2019-02-02T02:28:07.552Z,35.17
2019-02-02T02:30:35.759Z,37.67
2019-02-02T02:33:03.977Z,36.65
2019-02-02T02:35:32.172Z,37.03
2019-02-02T02:38:00.370Z,38.20
2019-02-02T02:40:28.585Z,37.85
2019-02-02T02:42:56.793Z,37.08
2019-02-02T02:45:25.009Z,43.83
2019-02-02T02:47:53.216Z,39.00
2019-02-02T02:50:24.080Z,36.83
2019-02-02T02:52:52.276Z,41.53
2019-02-02T02:55:20.491Z,38.25
2019-02-02T02:57:48.688Z,37.78
2019-02-02T03:00:27.506Z,35.85
2019-02-02T03:02:55.707Z,38.40
2019-02-02T03:05:23.911Z,37.55
2019-02-02T03:07:53.446Z,42.67
2019-02-02T03:10:24.164Z,39.05
2019-02-02T03:12:52.540Z,37.60
2019-02-02T03:15:20.745Z,36.20
2019-02-02T03:17:50.272Z,39.55
2019-02-02T03:20:18.458Z,40.12
2019-02-02T03:22:46.672Z,38.17
2019-02-02T03:25:20.250Z,39.38
2019-02-02T03:27:48.456Z,36.20
2019-02-02T03:30:20.849Z,36.10
2019-02-02T03:32:49.137Z,40.38
2019-02-02T03:35:19.684Z,37.08
2019-02-02T03:40:21.206Z,37.30
2019-02-02T03:42:49.395Z,37.90
2019-02-02T03:45:19.438Z,41.50
2019-02-02T03:47:47.655Z,38.48
2019-02-02T03:50:15.847Z,39.75
2019-02-02T03:52:44.067Z,45.70
2019-02-02T03:55:14.203Z,40.08
2019-02-02T03:57:42.416Z,41.10
2019-02-02T04:00:13.155Z,33.13
2019-02-02T04:02:41.368Z,34.95
2019-02-02T04:05:15.263Z,38.08
2019-02-02T04:07:43.480Z,37.33
2019-02-02T04:10:12.911Z,34.13
2019-02-02T04:12:41.125Z,36.93
2019-02-02T04:15:10.972Z,37.48
2019-02-02T04:17:39.172Z,33.58
2019-02-02T04:20:10.632Z,37.63
2019-02-02T04:22:38.843Z,37.33
2019-02-02T04:25:07.881Z,36.85
2019-02-02T04:27:36.092Z,35.03
2019-02-02T04:30:07.552Z,41.08
2019-02-02T04:32:35.768Z,32.48
2019-02-02T04:35:05.696Z,38.45
2019-02-02T04:37:33.916Z,40.43
2019-02-02T04:40:02.107Z,33.50
2019-02-02T04:42:30.322Z,37.93
2019-02-02T04:44:58.842Z,41.95
2019-02-02T04:47:27.036Z,46.13
2019-02-02T04:49:55.253Z,43.08
2019-02-02T04:52:23.522Z,42.48
2019-02-02T04:54:51.729Z,45.63
2019-02-02T04:57:19.928Z,40.30
2019-02-02T04:59:48.139Z,38.80
2019-02-02T05:02:16.344Z,34.20
2019-02-02T05:04:44.554Z,42.88
2019-02-02T05:07:12.756Z,46.40
2019-02-02T05:09:40.969Z,45.67
2019-02-02T05:12:09.165Z,45.23
2019-02-02T05:14:37.368Z,46.13
2019-02-02T05:17:05.573Z,48.25
2019-02-02T05:19:33.780Z,46.73
2019-02-02T05:22:21.404Z,46.18
2019-02-02T05:24:49.616Z,46.65
2019-02-02T05:27:17.813Z,45.92
2019-02-02T05:29:46.020Z,47.60
2019-02-02T05:32:14.222Z,49.63
2019-02-02T05:34:42.431Z,47.08
2019-02-02T05:37:10.637Z,47.58
2019-02-02T05:39:38.848Z,46.88
2019-02-02T05:42:07.050Z,51.40
2019-02-02T05:44:35.264Z,42.48
2019-02-02T05:47:03.495Z,37.93
2019-02-02T05:49:32.267Z,47.20
2019-02-02T05:52:01.283Z,48.90
2019-02-02T05:54:29.495Z,50.65
2019-02-02T05:56:57.706Z,46.28
2019-02-02T05:59:25.921Z,49.67
2019-02-02T06:01:54.121Z,51.20
2019-02-02T06:04:22.328Z,51.53
2019-02-02T06:06:50.534Z,49.30
2019-02-02T06:09:18.723Z,44.80
2019-02-02T06:11:46.935Z,47.13
2019-02-02T06:14:15.140Z,43.50
2019-02-02T06:16:43.352Z,51.77
2019-02-02T06:19:11.551Z,42.58
2019-02-02T06:21:39.762Z,53.58
2019-02-02T06:24:07.959Z,50.15
2019-02-02T06:26:36.173Z,49.50
2019-02-02T06:29:04.380Z,53.15
2019-02-02T06:31:32.583Z,54.25
2019-02-02T06:34:00.789Z,51.50
2019-02-02T06:36:29.007Z,49.80
2019-02-02T06:38:57.195Z,51.30
2019-02-02T06:41:25.406Z,47.20
2019-02-02T06:43:53.599Z,45.12
2019-02-02T06:46:21.831Z,45.67
2019-02-02T06:48:50.013Z,46.42
2019-02-02T06:51:18.220Z,43.08
2019-02-02T06:53:46.426Z,42.80
2019-02-02T06:56:14.640Z,42.83
2019-02-02T06:58:42.828Z,39.60
2019-02-02T07:01:11.039Z,45.30
2019-02-02T07:03:39.241Z,45.98
2019-02-02T07:06:07.440Z,48.45
2019-02-02T07:08:35.657Z,43.25
2019-02-02T07:11:03.860Z,50.05
2019-02-02T07:13:32.069Z,47.13
2019-02-02T07:16:00.268Z,51.00
2019-02-02T07:18:28.473Z,45.23
2019-02-02T07:20:56.668Z,49.50
2019-02-02T07:23:24.883Z,46.40
2019-02-02T07:25:53.083Z,46.80
2019-02-02T07:28:21.292Z,50.25
2019-02-02T07:30:49.494Z,44.60
2019-02-02T07:33:17.710Z,52.90
2019-02-02T07:35:45.933Z,52.67
2019-02-02T07:38:14.140Z,51.05
2019-02-02T07:40:42.341Z,53.50
2019-02-02T07:43:10.568Z,57.93
2019-02-02T07:45:38.756Z,62.67
2019-02-02T07:48:06.970Z,62.78
2019-02-02T07:50:35.169Z,64.82
2019-02-02T07:53:03.381Z,69.70
2019-02-02T07:55:31.583Z,70.72
2019-02-02T07:57:59.794Z,65.00
2019-02-02T08:00:40.892Z,70.47
2019-02-02T08:03:06.672Z,67.30
2019-02-02T08:05:34.871Z,70.97
2019-02-02T08:08:03.083Z,65.83
2019-02-02T08:10:31.281Z,68.75
2019-02-02T08:12:59.570Z,68.42
2019-02-02T08:15:32.396Z,74.53
2019-02-02T08:18:00.607Z,70.72
2019-02-02T08:20:28.810Z,74.20
2019-02-02T08:22:57.297Z,76.95
2019-02-02T08:25:25.500Z,68.00
2019-02-02T08:27:53.701Z,74.10
2019-02-02T08:30:24.606Z,65.45
2019-02-02T08:32:52.820Z,71.15
2019-02-02T08:35:21.029Z,69.22
2019-02-02T08:37:49.227Z,75.47
2019-02-02T08:40:19.079Z,76.47
2019-02-02T08:42:47.281Z,69.32
2019-02-02T08:45:15.577Z,71.45
2019-02-02T08:47:43.833Z,66.82
2019-02-02T08:50:26.796Z,68.20
2019-02-02T08:52:54.994Z,73.80
2019-02-02T08:55:23.237Z,65.15
2019-02-02T08:57:51.485Z,66.80
2019-02-02T09:00:20.230Z,61.98
2019-02-02T09:02:48.504Z,61.55
2019-02-02T09:05:19.068Z,61.00
2019-02-02T09:07:47.258Z,61.18
2019-02-02T09:10:17.399Z,57.08
2019-02-02T09:12:45.667Z,61.70
2019-02-02T09:15:15.925Z,61.45
2019-02-02T09:17:44.134Z,52.13
2019-02-02T09:20:13.376Z,46.05
2019-02-02T09:22:41.575Z,44.90
2019-02-02T09:25:12.488Z,45.25
2019-02-02T09:27:40.695Z,49.42
2019-02-02T09:30:12.156Z,47.95
2019-02-02T09:32:40.355Z,46.28
2019-02-02T09:35:08.944Z,54.38
2019-02-02T09:37:37.129Z,49.53
2019-02-02T09:40:08.639Z,53.35
2019-02-02T09:42:36.848Z,47.08
2019-02-02T09:45:10.608Z,53.58
2019-02-02T09:47:38.816Z,50.43
2019-02-02T09:50:10.324Z,49.18
2019-02-02T09:52:38.525Z,55.78
2019-02-02T09:55:09.996Z,52.58
2019-02-02T09:57:38.201Z,52.80
2019-02-02T10:00:15.140Z,52.95
2019-02-02T10:02:45.917Z,52.60
2019-02-02T10:05:13.283Z,49.88
2019-02-02T10:07:41.474Z,54.18
2019-02-02T10:10:12.944Z,52.80
2019-02-02T10:12:41.144Z,53.80
2019-02-02T10:15:10.489Z,53.08
2019-02-02T10:17:38.691Z,48.92
2019-02-02T10:20:10.189Z,48.98
2019-02-02T10:22:38.400Z,51.48
2019-02-02T10:25:10.000Z,49.65
2019-02-02T10:27:38.212Z,50.52
2019-02-02T10:30:18.433Z,51.28
2019-02-02T10:32:46.640Z,52.05
2019-02-02T10:35:14.844Z,51.98
2019-02-02T10:37:43.082Z,54.38
2019-02-02T10:40:13.453Z,55.05
2019-02-02T10:42:41.659Z,60.48
2019-02-02T10:45:15.364Z,53.85
2019-02-02T10:47:43.575Z,57.60
2019-02-02T10:50:20.883Z,56.28
2019-02-02T10:52:49.266Z,59.58
2019-02-02T10:55:17.536Z,60.67
2019-02-02T10:57:45.825Z,57.80
2019-02-02T11:00:19.660Z,60.75
2019-02-02T11:02:48.151Z,56.80
2019-02-02T11:05:16.417Z,65.62
2019-02-02T11:07:44.674Z,69.35
2019-02-02T11:10:24.397Z,69.72
2019-02-02T11:12:52.802Z,65.63
2019-02-02T11:15:22.384Z,69.58
2019-02-02T11:17:50.916Z,65.75
2019-02-02T11:20:21.502Z,68.22
2019-02-02T11:25:17.436Z,66.37
2019-02-02T11:27:45.686Z,63.55
2019-02-02T11:30:17.157Z,63.98
2019-02-02T11:32:45.443Z,62.88
2019-02-02T11:35:15.479Z,66.77
2019-02-02T11:37:43.699Z,64.65
2019-02-02T11:40:14.940Z,58.58
2019-02-02T11:42:43.157Z,57.43
2019-02-02T11:45:12.904Z,53.78
2019-02-02T11:47:41.107Z,58.23
2019-02-02T11:50:11.941Z,57.80
2019-02-02T11:52:40.215Z,55.05
2019-02-02T11:55:10.973Z,52.05
2019-02-02T11:57:39.174Z,50.65
2019-02-02T12:00:16.567Z,50.78
2019-02-02T12:02:49.579Z,55.55
2019-02-02T12:05:14.919Z,55.20
2019-02-02T12:07:43.128Z,56.37
2019-02-02T12:10:19.604Z,55.83
2019-02-02T12:12:47.803Z,53.52
2019-02-02T12:15:17.744Z,51.83
2019-02-02T12:17:46.097Z,54.15
2019-02-02T12:20:18.545Z,49.40
2019-02-02T12:22:47.118Z,52.73
2019-02-02T12:25:15.307Z,51.08
2019-02-02T12:27:43.511Z,49.53
2019-02-02T12:30:17.156Z,50.12
2019-02-02T12:32:45.424Z,53.10
2019-02-02T12:35:19.594Z,48.42
2019-02-02T12:37:47.795Z,49.45
2019-02-02T12:40:18.254Z,46.45
2019-02-02T12:42:46.452Z,46.70
2019-02-02T12:45:17.915Z,48.02
2019-02-02T12:47:46.119Z,42.67
2019-02-02T12:50:14.503Z,43.98
2019-02-02T12:52:42.704Z,44.88
2019-02-02T12:55:10.984Z,46.95
2019-02-02T12:57:39.176Z,46.83
2019-02-02T13:00:20.332Z,43.35
2019-02-02T13:02:48.533Z,44.05
2019-02-02T13:05:19.536Z,44.35
2019-02-02T13:07:47.744Z,47.17
2019-02-02T13:10:25.001Z,41.73
2019-02-02T13:12:53.423Z,39.40
2019-02-02T13:15:21.630Z,40.85
2019-02-02T13:17:49.832Z,41.42
2019-02-02T13:20:18.416Z,40.15
2019-02-02T13:22:46.616Z,37.90
2019-02-02T13:25:17.014Z,40.67
2019-02-02T13:27:45.239Z,36.95
2019-02-02T13:30:19.032Z,30.97
2019-02-02T13:32:49.803Z,30.60
2019-02-02T13:35:18.299Z,34.38
2019-02-02T13:37:46.529Z,29.82
2019-02-02T13:40:17.748Z,25.65
2019-02-02T13:42:45.952Z,23.80
2019-02-02T13:45:17.439Z,26.42
2019-02-02T13:50:15.008Z,27.67
2019-02-02T13:52:43.198Z,26.85
2019-02-02T13:55:11.674Z,24.70
2019-02-02T13:57:39.867Z,27.10
2019-02-02T14:00:11.487Z,27.85
2019-02-02T14:02:39.685Z,27.60
2019-02-02T14:05:14.012Z,24.50
2019-02-02T14:07:42.208Z,22.90
2019-02-02T14:10:16.605Z,24.43
2019-02-02T14:12:44.811Z,22.73
2019-02-02T14:15:14.063Z,27.30
2019-02-02T14:17:42.261Z,21.95
2019-02-02T14:20:12.504Z,23.12
2019-02-02T14:22:40.722Z,26.05
2019-02-02T14:25:13.711Z,28.10
2019-02-02T14:27:41.959Z,25.75
2019-02-02T14:30:13.381Z,25.30
2019-02-02T14:32:41.566Z,26.30
2019-02-02T14:35:14.820Z,29.65
2019-02-02T14:37:43.024Z,29.63
2019-02-02T14:40:13.467Z,30.90
2019-02-02T14:42:41.715Z,32.58
2019-02-02T14:45:12.452Z,28.92
2019-02-02T14:47:40.672Z,33.05
2019-02-02T14:50:11.711Z,30.20
2019-02-02T14:52:39.912Z,32.38
2019-02-02T14:55:16.272Z,29.98
2019-02-02T14:57:44.483Z,34.20
2019-02-02T15:00:29.243Z,24.63
2019-02-02T15:02:57.468Z,29.40
2019-02-02T15:05:25.740Z,28.02
2019-02-02T15:07:53.956Z,27.20
2019-02-02T15:10:23.003Z,25.50
2019-02-02T15:12:51.284Z,28.42
2019-02-02T15:15:19.479Z,28.92
2019-02-02T15:17:47.701Z,27.40
2019-02-02T15:20:30.887Z,28.35
2019-02-02T15:22:59.099Z,28.47
2019-02-02T15:25:27.316Z,28.57
2019-02-02T15:27:55.560Z,27.40
2019-02-02T15:30:26.662Z,24.37
2019-02-02T15:32:54.847Z,29.07
2019-02-02T15:35:23.070Z,26.10
2019-02-02T15:37:51.284Z,26.75
2019-02-02T15:40:19.756Z,24.82
2019-02-02T15:42:47.972Z,25.45
2019-02-02T15:45:19.010Z,22.00
2019-02-02T15:47:47.262Z,22.35
2019-02-02T15:50:16.692Z,19.30
2019-02-02T15:52:45.357Z,19.73
2019-02-02T15:55:21.157Z,18.65
2019-02-02T15:57:49.365Z,14.90
2019-02-02T16:00:25.308Z,16.67
2019-02-02T16:02:53.526Z,15.58
2019-02-02T16:05:22.151Z,14.85
2019-02-02T16:07:50.360Z,14.30
2019-02-02T16:10:20.712Z,13.20
2019-02-02T16:12:48.925Z,13.58
2019-02-02T16:15:17.130Z,14.93
2019-02-02T16:17:45.331Z,14.93
2019-02-02T16:20:16.287Z,14.23
2019-02-02T16:22:44.497Z,15.25
2019-02-02T16:25:13.443Z,16.95
2019-02-02T16:27:41.668Z,13.03
2019-02-02T16:30:23.860Z,13.53
2019-02-02T16:32:52.058Z,19.35
2019-02-02T16:35:20.268Z,15.50
2019-02-02T16:37:48.473Z,16.77
2019-02-02T16:40:18.917Z,15.58
2019-02-02T16:42:47.120Z,15.32
2019-02-02T16:45:17.663Z,15.48
2019-02-02T16:50:15.791Z,16.57
2019-02-02T16:55:13.552Z,19.60
2019-02-02T16:57:41.748Z,19.12
2019-02-02T17:00:13.356Z,16.15
2019-02-02T17:02:41.562Z,18.07
2019-02-02T17:05:10.913Z,16.50
2019-02-02T17:07:39.117Z,16.93
2019-02-02T17:10:15.759Z,18.35
2019-02-02T17:12:43.976Z,16.97
2019-02-02T17:15:12.245Z,15.72
2019-02-02T17:17:40.444Z,16.40
2019-02-02T17:20:14.059Z,16.95
2019-02-02T17:22:42.258Z,18.92
2019-02-02T17:25:18.071Z,20.00
2019-02-02T17:27:46.268Z,19.25
2019-02-02T17:30:22.680Z,19.00
2019-02-02T17:32:51.522Z,21.17
2019-02-02T17:35:19.736Z,19.92
2019-02-02T17:37:47.931Z,22.05
2019-02-02T17:40:19.040Z,21.17
2019-02-02T17:42:47.235Z,23.18
2019-02-02T17:45:19.596Z,25.25
2019-02-02T17:47:48.049Z,25.62
2019-02-02T17:50:18.856Z,23.90
2019-02-02T17:52:47.061Z,22.45
2019-02-02T17:55:15.276Z,26.35
2019-02-02T17:57:43.471Z,28.15
2019-02-02T18:00:30.319Z,30.45
2019-02-02T18:02:58.516Z,28.12
2019-02-02T18:05:26.736Z,28.60
2019-02-02T18:07:54.932Z,32.60
2019-02-02T18:10:23.139Z,39.27
2019-02-02T18:12:51.356Z,34.98
2019-02-02T18:15:19.566Z,35.85
2019-02-02T18:17:47.764Z,32.85
2019-02-02T18:20:16.427Z,43.65
2019-02-02T18:22:44.626Z,43.75
2019-02-02T18:25:16.751Z,45.98
2019-02-02T18:27:44.960Z,51.08
2019-02-02T18:30:18.881Z,45.50
2019-02-02T18:32:47.376Z,46.45
2019-02-02T18:35:16.195Z,48.63
2019-02-02T18:37:44.398Z,49.93
2019-02-02T18:40:25.551Z,41.80
2019-02-02T18:42:53.737Z,38.80
2019-02-02T18:45:27.004Z,40.30
2019-02-02T18:47:55.216Z,40.83
2019-02-02T18:50:23.551Z,41.50
2019-02-02T18:52:53.816Z,34.08
2019-02-02T18:55:36.964Z,34.10
2019-02-02T18:58:05.403Z,30.82
2019-02-02T19:00:33.608Z,29.20
2019-02-02T19:03:01.825Z,27.80
2019-02-02T19:05:30.061Z,25.85
2019-02-02T19:07:58.324Z,30.40
2019-02-02T19:10:35.065Z,27.05
2019-02-02T19:13:03.276Z,28.47
2019-02-02T19:15:31.477Z,30.00
2019-02-02T19:17:59.695Z,22.93
2019-02-02T19:20:27.884Z,30.05
2019-02-02T19:22:57.206Z,28.25
2019-02-02T19:25:25.580Z,30.05
2019-02-02T19:27:53.793Z,31.55
2019-02-02T19:30:27.465Z,43.20
2019-02-02T19:32:55.667Z,44.98
2019-02-02T19:35:23.868Z,47.70
2019-02-02T19:37:52.080Z,32.75
2019-02-02T19:40:20.285Z,37.67
2019-02-02T19:42:48.496Z,34.65
2019-02-02T19:45:19.393Z,30.77
2019-02-02T19:47:47.608Z,34.58
2019-02-02T19:50:17.852Z,32.42
2019-02-02T19:52:46.067Z,38.13
2019-02-02T19:55:15.125Z,40.40
2019-02-02T19:57:43.460Z,35.43
2019-02-02T20:00:14.769Z,36.30
2019-02-02T20:02:42.980Z,32.78
2019-02-02T20:05:11.185Z,33.30
2019-02-02T20:07:39.388Z,39.10
2019-02-02T20:10:10.694Z,31.42
2019-02-02T20:12:38.909Z,39.03
2019-02-02T20:15:10.108Z,33.40
2019-02-02T20:17:38.323Z,42.88
2019-02-02T20:20:09.785Z,42.83
2019-02-02T20:22:37.992Z,43.05
2019-02-02T20:25:09.707Z,41.80
2019-02-02T20:27:37.915Z,42.10
2019-02-02T20:30:09.377Z,39.95
2019-02-02T20:32:37.592Z,37.25
2019-02-02T20:35:08.940Z,41.92
2019-02-02T20:37:37.208Z,38.50
2019-02-02T20:40:11.651Z,42.10
2019-02-02T20:42:39.856Z,43.55
2019-02-02T20:45:13.939Z,43.73
2019-02-02T20:47:42.133Z,40.73
2019-02-02T20:50:13.590Z,48.05
2019-02-02T20:52:47.483Z,43.87
2019-02-02T20:55:25.925Z,40.95
2019-02-02T20:57:54.119Z,37.80
2019-02-02T21:00:25.046Z,41.48
2019-02-02T21:02:53.239Z,39.50
2019-02-02T21:05:21.479Z,43.98
2019-02-02T21:07:49.656Z,49.42
2019-02-02T21:10:20.285Z,43.78
2019-02-02T21:12:48.483Z,47.45
2019-02-02T21:15:16.698Z,41.50
2019-02-02T21:17:45.436Z,41.75
2019-02-02T21:20:23.145Z,44.00
2019-02-02T21:22:51.616Z,43.02
2019-02-02T21:25:19.829Z,43.20
2019-02-02T21:27:48.034Z,50.17
2019-02-02T21:30:21.237Z,46.40
2019-02-02T21:32:49.429Z,45.80
2019-02-02T21:35:17.645Z,46.00
2019-02-02T21:37:46.235Z,45.70
2019-02-02T21:40:19.385Z,48.52
2019-02-02T21:42:47.585Z,50.35
2019-02-02T21:45:15.800Z,43.75
2019-02-02T21:47:44.000Z,45.40
2019-02-02T21:50:18.540Z,49.15
2019-02-02T21:52:46.743Z,51.00
2019-02-02T21:55:20.536Z,49.67
2019-02-02T21:57:48.735Z,51.45
2019-02-02T22:00:22.273Z,44.27
2019-02-02T22:02:50.660Z,46.00
2019-02-02T22:05:18.860Z,47.60
2019-02-02T22:07:47.539Z,41.77
2019-02-02T22:10:16.037Z,48.05
2019-02-02T22:12:44.243Z,48.55
2019-02-02T22:15:21.735Z,44.98
2019-02-02T22:17:49.937Z,46.65
2019-02-02T22:20:18.511Z,49.75
2019-02-02T22:22:46.720Z,47.25
2019-02-02T22:25:26.890Z,46.95
2019-02-02T22:27:55.096Z,38.78
2019-02-02T22:30:25.444Z,40.30
2019-02-02T22:32:53.648Z,47.80
2019-02-02T22:35:21.901Z,40.45
2019-02-02T22:37:50.100Z,43.15
2019-02-02T22:40:23.252Z,41.68
2019-02-02T22:42:51.457Z,46.42
2019-02-02T22:45:20.606Z,40.15
2019-02-02T22:47:48.963Z,40.40
2019-02-02T22:50:18.912Z,38.75
2019-02-02T22:52:47.392Z,50.88
2019-02-02T22:55:17.437Z,48.85
2019-02-02T22:57:45.636Z,47.23
2019-02-02T23:00:27.650Z,43.42
2019-02-02T23:02:55.859Z,50.48
2019-02-02T23:05:45.672Z,55.40
2019-02-02T23:08:17.148Z,50.10
2019-02-02T23:10:51.505Z,42.58
2019-02-02T23:13:28.763Z,46.40
2019-02-02T23:16:05.895Z,49.38
2019-02-02T23:18:34.053Z,52.27
2019-02-02T23:21:02.260Z,45.12
2019-02-02T23:23:30.756Z,43.38
2019-02-02T23:25:58.963Z,45.85
2019-02-02T23:28:27.182Z,48.35
2019-02-02T23:30:55.661Z,55.43
2019-02-02T23:33:23.997Z,47.90
2019-02-02T23:35:52.195Z,42.00
2019-02-02T23:38:20.422Z,41.10
2019-02-02T23:40:48.624Z,41.55
2019-02-02T23:43:16.833Z,37.03
2019-02-02T23:45:45.032Z,41.08
2019-02-02T23:48:13.926Z,37.33
2019-02-02T23:50:42.495Z,39.45
2019-02-02T23:53:11.012Z,34.95
2019-02-02T23:55:39.216Z,37.15
2019-02-02T23:58:07.423Z,31.75
